sensor_id;sensor_type;location;lat;lon;timestamp;P1;P2;P0
51258;PMS7003;37327;54.254;18.504;2022-10-17T00:01:57;3;3;3
51258;PMS7003;37327;54.254;18.504;2022-10-17T00:05:04;3;3;2
51258;PMS7003;37327;54.254;18.504;2022-10-17T00:08:39;3;3;3
51258;PMS7003;37327;54.254;18.504;2022-10-17T00:11:47;3;3;2
51258;PMS7003;37327;54.254;18.504;2022-10-17T00:14:56;3;3;3
51258;PMS7003;37327;54.254;18.504;2022-10-17T00:18:03;3;3;3
51258;PMS7003;37327;54.254;18.504;2022-10-17T00:24:23;3;3;3
51258;PMS7003;37327;54.254;18.504;2022-10-17T00:27:55;2;2;2
51258;PMS7003;37327;54.254;18.504;2022-10-17T00:31:03;2;2;2
51258;PMS7003;37327;54.254;18.504;2022-10-17T00:34:11;4;3;3
51258;PMS7003;37327;54.254;18.504;2022-10-17T00:37:19;2;2;2
51258;PMS7003;37327;54.254;18.504;2022-10-17T00:40:26;3;2;2
51258;PMS7003;37327;54.254;18.504;2022-10-17T00:47:19;4;2;2
51258;PMS7003;37327;54.254;18.504;2022-10-17T00:50:29;3;3;3
51258;PMS7003;37327;54.254;18.504;2022-10-17T00:53:39;3;3;3
51258;PMS7003;37327;54.254;18.504;2022-10-17T00:56:46;2;2;2
51258;PMS7003;37327;54.254;18.504;2022-10-17T00:59:54;2;2;2
51258;PMS7003;37327;54.254;18.504;2022-10-17T01:03:31;1;1;1
51258;PMS7003;37327;54.254;18.504;2022-10-17T01:06:38;3;3;3
51258;PMS7003;37327;54.254;18.504;2022-10-17T01:09:44;2;2;2
51258;PMS7003;37327;54.254;18.504;2022-10-17T01:16:12;2;2;2
51258;PMS7003;37327;54.254;18.504;2022-10-17T01:43:58;3;3;2
51258;PMS7003;37327;54.254;18.504;2022-10-17T01:47:14;4;4;3
51258;PMS7003;37327;54.254;18.504;2022-10-17T01:50:35;2;2;2
51258;PMS7003;37327;54.254;18.504;2022-10-17T01:54:14;2;2;2
51258;PMS7003;37327;54.254;18.504;2022-10-17T02:00:42;2;2;2
51258;PMS7003;37327;54.254;18.504;2022-10-17T02:03:51;2;2;2
51258;PMS7003;37327;54.254;18.504;2022-10-17T02:07:25;2;2;2
51258;PMS7003;37327;54.254;18.504;2022-10-17T02:10:37;2;2;2
51258;PMS7003;37327;54.254;18.504;2022-10-17T02:27:40;1;1;1
51258;PMS7003;37327;54.254;18.504;2022-10-17T02:37:39;2;2;2
51258;PMS7003;37327;54.254;18.504;2022-10-17T02:40:49;1;1;1
51258;PMS7003;37327;54.254;18.504;2022-10-17T02:44:24;1;1;1
51258;PMS7003;37327;54.254;18.504;2022-10-17T02:47:34;1;1;1
51258;PMS7003;37327;54.254;18.504;2022-10-17T02:57:51;1;1;1
51258;PMS7003;37327;54.254;18.504;2022-10-17T03:01:01;1;1;1
51258;PMS7003;37327;54.254;18.504;2022-10-17T03:04:11;2;2;2
51258;PMS7003;37327;54.254;18.504;2022-10-17T03:07:19;1;1;1
51258;PMS7003;37327;54.254;18.504;2022-10-17T03:10:26;2;2;1
51258;PMS7003;37327;54.254;18.504;2022-10-17T03:14:00;3;3;3
51258;PMS7003;37327;54.254;18.504;2022-10-17T03:17:08;2;1;1
51258;PMS7003;37327;54.254;18.504;2022-10-17T03:20:14;2;2;2
51258;PMS7003;37327;54.254;18.504;2022-10-17T03:23:21;2;2;2
51258;PMS7003;37327;54.254;18.504;2022-10-17T03:26:28;3;2;2
51258;PMS7003;37327;54.254;18.504;2022-10-17T03:29:35;1;1;1
51258;PMS7003;37327;54.254;18.504;2022-10-17T03:33:10;2;2;2
51258;PMS7003;37327;54.254;18.504;2022-10-17T03:36:17;2;2;2
51258;PMS7003;37327;54.254;18.504;2022-10-17T03:39:24;1;1;1
51258;PMS7003;37327;54.254;18.504;2022-10-17T03:42:31;3;3;3
51258;PMS7003;37327;54.254;18.504;2022-10-17T03:45:37;1;1;1
51258;PMS7003;37327;54.254;18.504;2022-10-17T03:48:44;0;0;0
51258;PMS7003;37327;54.254;18.504;2022-10-17T03:51:51;1;1;1
51258;PMS7003;37327;54.254;18.504;2022-10-17T03:55:23;2;2;2
51258;PMS7003;37327;54.254;18.504;2022-10-17T03:58:29;2;2;1
51258;PMS7003;37327;54.254;18.504;2022-10-17T04:01:36;1;1;1
51258;PMS7003;37327;54.254;18.504;2022-10-17T04:04:42;1;1;1
51258;PMS7003;37327;54.254;18.504;2022-10-17T04:07:49;1;1;1
51258;PMS7003;37327;54.254;18.504;2022-10-17T04:10:59;1;1;1
51258;PMS7003;37327;54.254;18.504;2022-10-17T04:14:33;1;1;1
51258;PMS7003;37327;54.254;18.504;2022-10-17T04:17:39;2;2;1
51258;PMS7003;37327;54.254;18.504;2022-10-17T04:20:46;1;1;1
51258;PMS7003;37327;54.254;18.504;2022-10-17T04:23:59;1;1;1
51258;PMS7003;37327;54.254;18.504;2022-10-17T04:27:05;1;1;1
51258;PMS7003;37327;54.254;18.504;2022-10-17T04:30:13;3;1;1
51258;PMS7003;37327;54.254;18.504;2022-10-17T04:33:49;1;1;1
51258;PMS7003;37327;54.254;18.504;2022-10-17T04:36:56;1;1;1
51258;PMS7003;37327;54.254;18.504;2022-10-17T04:40:03;2;2;2
51258;PMS7003;37327;54.254;18.504;2022-10-17T04:43:10;2;2;2
51258;PMS7003;37327;54.254;18.504;2022-10-17T04:46:17;1;1;1
51258;PMS7003;37327;54.254;18.504;2022-10-17T04:49:24;1;1;1
51258;PMS7003;37327;54.254;18.504;2022-10-17T04:52:56;1;1;1
51258;PMS7003;37327;54.254;18.504;2022-10-17T04:59:16;0;0;0
51258;PMS7003;37327;54.254;18.504;2022-10-17T05:02:23;1;1;1
51258;PMS7003;37327;54.254;18.504;2022-10-17T05:05:30;1;1;1
51258;PMS7003;37327;54.254;18.504;2022-10-17T05:08:37;1;1;1
51258;PMS7003;37327;54.254;18.504;2022-10-17T05:12:09;1;1;1
51258;PMS7003;37327;54.254;18.504;2022-10-17T05:15:16;1;1;1
51258;PMS7003;37327;54.254;18.504;2022-10-17T05:18:23;5;5;5
51258;PMS7003;37327;54.254;18.504;2022-10-17T05:21:30;8;8;7
51258;PMS7003;37327;54.254;18.504;2022-10-17T05:24:36;6;6;6
51258;PMS7003;37327;54.254;18.504;2022-10-17T05:27:43;5;5;4
51258;PMS7003;37327;54.254;18.504;2022-10-17T05:31:18;4;4;4
51258;PMS7003;37327;54.254;18.504;2022-10-17T05:34:25;5;4;4
51258;PMS7003;37327;54.254;18.504;2022-10-17T05:37:32;7;6;5
51258;PMS7003;37327;54.254;18.504;2022-10-17T05:40:39;3;3;2
51258;PMS7003;37327;54.254;18.504;2022-10-17T05:43:46;3;3;3
51258;PMS7003;37327;54.254;18.504;2022-10-17T05:46:56;4;3;2
51258;PMS7003;37327;54.254;18.504;2022-10-17T05:50:28;3;2;2
51258;PMS7003;37327;54.254;18.504;2022-10-17T05:53:38;4;3;3
51258;PMS7003;37327;54.254;18.504;2022-10-17T05:56:50;5;4;4
51258;PMS7003;37327;54.254;18.504;2022-10-17T05:59:58;2;2;2
51258;PMS7003;37327;54.254;18.504;2022-10-17T06:03:08;2;2;2
51258;PMS7003;37327;54.254;18.504;2022-10-17T06:06:42;1;1;1
51258;PMS7003;37327;54.254;18.504;2022-10-17T06:09:49;2;2;2
51258;PMS7003;37327;54.254;18.504;2022-10-17T06:12:56;1;1;1
51258;PMS7003;37327;54.254;18.504;2022-10-17T06:16:03;2;2;2
51258;PMS7003;37327;54.254;18.504;2022-10-17T06:19:10;2;1;1
51258;PMS7003;37327;54.254;18.504;2022-10-17T06:22:17;2;2;1
51258;PMS7003;37327;54.254;18.504;2022-10-17T06:25:52;2;2;2
51258;PMS7003;37327;54.254;18.504;2022-10-17T06:28:59;1;1;1
51258;PMS7003;37327;54.254;18.504;2022-10-17T06:32:07;2;2;2
51258;PMS7003;37327;54.254;18.504;2022-10-17T06:35:15;1;1;1
51258;PMS7003;37327;54.254;18.504;2022-10-17T06:38:21;1;1;1
51258;PMS7003;37327;54.254;18.504;2022-10-17T06:41:28;0;0;0
51258;PMS7003;37327;54.254;18.504;2022-10-17T06:45:01;4;1;1
51258;PMS7003;37327;54.254;18.504;2022-10-17T06:48:08;1;1;1
51258;PMS7003;37327;54.254;18.504;2022-10-17T06:51:15;1;1;1
51258;PMS7003;37327;54.254;18.504;2022-10-17T06:54:22;1;1;1
51258;PMS7003;37327;54.254;18.504;2022-10-17T06:57:32;1;1;1
51258;PMS7003;37327;54.254;18.504;2022-10-17T07:00:39;2;1;1
51258;PMS7003;37327;54.254;18.504;2022-10-17T07:04:11;8;8;7
51258;PMS7003;37327;54.254;18.504;2022-10-17T07:07:19;14;14;13
51258;PMS7003;37327;54.254;18.504;2022-10-17T07:10:25;12;10;9
51258;PMS7003;37327;54.254;18.504;2022-10-17T07:13:32;9;9;8
51258;PMS7003;37327;54.254;18.504;2022-10-17T07:16:39;17;16;15
51258;PMS7003;37327;54.254;18.504;2022-10-17T07:19:46;21;17;15
51258;PMS7003;37327;54.254;18.504;2022-10-17T07:23:21;4;3;3
51258;PMS7003;37327;54.254;18.504;2022-10-17T07:26:28;1;1;1
51258;PMS7003;37327;54.254;18.504;2022-10-17T07:29:35;1;0;0
51258;PMS7003;37327;54.254;18.504;2022-10-17T07:32:45;1;0;0
51258;PMS7003;37327;54.254;18.504;2022-10-17T07:35:53;0;0;0
51258;PMS7003;37327;54.254;18.504;2022-10-17T07:38:59;2;1;0
51258;PMS7003;37327;54.254;18.504;2022-10-17T07:45:44;2;0;0
51258;PMS7003;37327;54.254;18.504;2022-10-17T07:48:52;1;1;1
51258;PMS7003;37327;54.254;18.504;2022-10-17T07:51:58;2;2;1
51258;PMS7003;37327;54.254;18.504;2022-10-17T07:55:05;3;3;2
51258;PMS7003;37327;54.254;18.504;2022-10-17T08:01:04;4;2;2
51258;PMS7003;37327;54.254;18.504;2022-10-17T08:04:19;4;4;4
51258;PMS7003;37327;54.254;18.504;2022-10-17T08:07:26;4;3;3
51258;PMS7003;37327;54.254;18.504;2022-10-17T08:10:35;1;1;1
51258;PMS7003;37327;54.254;18.504;2022-10-17T08:13:42;0;0;0
51258;PMS7003;37327;54.254;18.504;2022-10-17T08:17:14;1;0;0
51258;PMS7003;37327;54.254;18.504;2022-10-17T08:20:21;0;0;0
51258;PMS7003;37327;54.254;18.504;2022-10-17T08:23:29;1;0;0
51258;PMS7003;37327;54.254;18.504;2022-10-17T08:26:35;2;0;0
51258;PMS7003;37327;54.254;18.504;2022-10-17T08:29:43;0;0;0
51258;PMS7003;37327;54.254;18.504;2022-10-17T08:32:57;0;0;0
51258;PMS7003;37327;54.254;18.504;2022-10-17T08:36:29;1;0;0
51258;PMS7003;37327;54.254;18.504;2022-10-17T08:39:36;0;0;0
51258;PMS7003;37327;54.254;18.504;2022-10-17T08:42:47;0;0;0
51258;PMS7003;37327;54.254;18.504;2022-10-17T08:46:01;0;0;0
51258;PMS7003;37327;54.254;18.504;2022-10-17T08:53:05;0;0;0
51258;PMS7003;37327;54.254;18.504;2022-10-17T08:56:20;1;0;0
51258;PMS7003;37327;54.254;18.504;2022-10-17T08:59:30;0;0;0
51258;PMS7003;37327;54.254;18.504;2022-10-17T09:20:50;2;2;2
51258;PMS7003;37327;54.254;18.504;2022-10-17T09:24:00;2;1;1
51258;PMS7003;37327;54.254;18.504;2022-10-17T09:27:15;3;2;2
51258;PMS7003;37327;54.254;18.504;2022-10-17T09:34:12;3;3;2
51258;PMS7003;37327;54.254;18.504;2022-10-17T09:37:21;2;2;2
51258;PMS7003;37327;54.254;18.504;2022-10-17T09:40:35;2;2;2
51258;PMS7003;37327;54.254;18.504;2022-10-17T09:43:42;4;4;4
51258;PMS7003;37327;54.254;18.504;2022-10-17T09:50:37;3;3;3
51258;PMS7003;37327;54.254;18.504;2022-10-17T09:53:48;4;4;4
51258;PMS7003;37327;54.254;18.504;2022-10-17T09:57:02;3;2;2
51258;PMS7003;37327;54.254;18.504;2022-10-17T10:00:23;3;3;2
51258;PMS7003;37327;54.254;18.504;2022-10-17T10:04:07;4;3;3
51258;PMS7003;37327;54.254;18.504;2022-10-17T10:07:10;4;3;3
51258;PMS7003;37327;54.254;18.504;2022-10-17T10:13:33;4;4;3
51258;PMS7003;37327;54.254;18.504;2022-10-17T10:20:32;4;4;4
51258;PMS7003;37327;54.254;18.504;2022-10-17T10:23:44;6;5;5
51258;PMS7003;37327;54.254;18.504;2022-10-17T10:26:56;5;3;2
51258;PMS7003;37327;54.254;18.504;2022-10-17T10:30:31;4;4;4
51258;PMS7003;37327;54.254;18.504;2022-10-17T10:33:39;4;4;4
51258;PMS7003;37327;54.254;18.504;2022-10-17T10:36:52;5;5;5
51258;PMS7003;37327;54.254;18.504;2022-10-17T10:43:52;4;4;4
51258;PMS7003;37327;54.254;18.504;2022-10-17T10:50:23;4;4;4
51258;PMS7003;37327;54.254;18.504;2022-10-17T10:53:38;5;4;4
51258;PMS7003;37327;54.254;18.504;2022-10-17T10:57:19;4;4;3
51258;PMS7003;37327;54.254;18.504;2022-10-17T11:00:33;3;3;3
51258;PMS7003;37327;54.254;18.504;2022-10-17T11:07:09;3;3;3
51258;PMS7003;37327;54.254;18.504;2022-10-17T11:10:56;3;3;3
51258;PMS7003;37327;54.254;18.504;2022-10-17T11:14:14;3;3;3
51258;PMS7003;37327;54.254;18.504;2022-10-17T11:17:31;4;4;4
51258;PMS7003;37327;54.254;18.504;2022-10-17T11:21:15;5;4;4
51258;PMS7003;37327;54.254;18.504;2022-10-17T11:24:28;3;3;3
51258;PMS7003;37327;54.254;18.504;2022-10-17T11:27:44;3;3;3
51258;PMS7003;37327;54.254;18.504;2022-10-17T11:30:53;4;4;4
51258;PMS7003;37327;54.254;18.504;2022-10-17T11:34:31;3;3;3
51258;PMS7003;37327;54.254;18.504;2022-10-17T11:37:46;4;3;2
51258;PMS7003;37327;54.254;18.504;2022-10-17T11:41:00;4;3;3
51258;PMS7003;37327;54.254;18.504;2022-10-17T11:47:52;3;3;2
51258;PMS7003;37327;54.254;18.504;2022-10-17T11:51:10;2;2;2
51258;PMS7003;37327;54.254;18.504;2022-10-17T12:04:59;3;3;3
51258;PMS7003;37327;54.254;18.504;2022-10-17T12:18:24;3;3;3
51258;PMS7003;37327;54.254;18.504;2022-10-17T12:25:19;4;4;4
51258;PMS7003;37327;54.254;18.504;2022-10-17T12:31:49;5;5;4
51258;PMS7003;37327;54.254;18.504;2022-10-17T12:34:58;4;3;3
51258;PMS7003;37327;54.254;18.504;2022-10-17T12:38:34;4;4;4
51258;PMS7003;37327;54.254;18.504;2022-10-17T12:41:51;5;5;4
51258;PMS7003;37327;54.254;18.504;2022-10-17T12:44:54;7;6;5
51258;PMS7003;37327;54.254;18.504;2022-10-17T12:48:01;7;5;5
51258;PMS7003;37327;54.254;18.504;2022-10-17T12:51:09;8;5;5
51258;PMS7003;37327;54.254;18.504;2022-10-17T12:58:18;4;4;3
51258;PMS7003;37327;54.254;18.504;2022-10-17T13:01:29;4;3;3
51258;PMS7003;37327;54.254;18.504;2022-10-17T13:04:40;5;5;4
51258;PMS7003;37327;54.254;18.504;2022-10-17T13:08:17;5;4;4
51258;PMS7003;37327;54.254;18.504;2022-10-17T13:11:35;5;5;4
51258;PMS7003;37327;54.254;18.504;2022-10-17T13:14:46;7;7;6
51258;PMS7003;37327;54.254;18.504;2022-10-17T13:17:59;6;6;6
51258;PMS7003;37327;54.254;18.504;2022-10-17T13:21:35;7;7;7
51258;PMS7003;37327;54.254;18.504;2022-10-17T13:24:43;5;5;5
51258;PMS7003;37327;54.254;18.504;2022-10-17T13:38:13;6;6;5
51258;PMS7003;37327;54.254;18.504;2022-10-17T13:41:23;8;5;5
51258;PMS7003;37327;54.254;18.504;2022-10-17T13:44:35;6;6;5
51258;PMS7003;37327;54.254;18.504;2022-10-17T13:47:43;5;5;5
51258;PMS7003;37327;54.254;18.504;2022-10-17T13:51:21;4;4;3
51258;PMS7003;37327;54.254;18.504;2022-10-17T13:54:31;8;6;6
51258;PMS7003;37327;54.254;18.504;2022-10-17T13:57:46;7;6;6
51258;PMS7003;37327;54.254;18.504;2022-10-17T14:00:58;9;8;8
51258;PMS7003;37327;54.254;18.504;2022-10-17T14:04:07;9;8;7
51258;PMS7003;37327;54.254;18.504;2022-10-17T14:07:45;5;4;4
51258;PMS7003;37327;54.254;18.504;2022-10-17T14:10:56;8;8;7
51258;PMS7003;37327;54.254;18.504;2022-10-17T14:14:06;8;8;7
51258;PMS7003;37327;54.254;18.504;2022-10-17T14:17:25;8;7;7
51258;PMS7003;37327;54.254;18.504;2022-10-17T14:21:00;9;7;6
51258;PMS7003;37327;54.254;18.504;2022-10-17T14:27:35;7;6;6
51258;PMS7003;37327;54.254;18.504;2022-10-17T14:30:51;9;7;6
51258;PMS7003;37327;54.254;18.504;2022-10-17T14:34:31;7;6;6
51258;PMS7003;37327;54.254;18.504;2022-10-17T14:37:45;8;7;7
51258;PMS7003;37327;54.254;18.504;2022-10-17T14:44:18;8;8;7
51258;PMS7003;37327;54.254;18.504;2022-10-17T14:47:58;7;7;7
51258;PMS7003;37327;54.254;18.504;2022-10-17T14:51:11;8;8;8
51258;PMS7003;37327;54.254;18.504;2022-10-17T14:54:21;6;6;5
51258;PMS7003;37327;54.254;18.504;2022-10-17T15:01:16;9;8;7
51258;PMS7003;37327;54.254;18.504;2022-10-17T15:04:23;10;9;8
51258;PMS7003;37327;54.254;18.504;2022-10-17T15:07:31;9;9;8
51258;PMS7003;37327;54.254;18.504;2022-10-17T15:10:38;7;7;6
51258;PMS7003;37327;54.254;18.504;2022-10-17T15:13:46;8;8;8
51258;PMS7003;37327;54.254;18.504;2022-10-17T15:16:54;10;8;7
51258;PMS7003;37327;54.254;18.504;2022-10-17T15:20:26;13;12;11
51258;PMS7003;37327;54.254;18.504;2022-10-17T15:23:35;9;9;9
51258;PMS7003;37327;54.254;18.504;2022-10-17T15:26:43;10;10;9
51258;PMS7003;37327;54.254;18.504;2022-10-17T15:29:50;12;12;10
51258;PMS7003;37327;54.254;18.504;2022-10-17T15:32:58;13;11;10
51258;PMS7003;37327;54.254;18.504;2022-10-17T15:36:14;9;9;8
51258;PMS7003;37327;54.254;18.504;2022-10-17T15:39:48;11;11;10
51258;PMS7003;37327;54.254;18.504;2022-10-17T15:42:59;11;10;9
51258;PMS7003;37327;54.254;18.504;2022-10-17T15:46:12;13;12;10
51258;PMS7003;37327;54.254;18.504;2022-10-17T15:49:24;12;12;11
51258;PMS7003;37327;54.254;18.504;2022-10-17T15:52:28;10;9;8
51258;PMS7003;37327;54.254;18.504;2022-10-17T15:56:00;15;14;12
51258;PMS7003;37327;54.254;18.504;2022-10-17T16:02:22;14;14;13
51258;PMS7003;37327;54.254;18.504;2022-10-17T16:05:29;15;15;13
51258;PMS7003;37327;54.254;18.504;2022-10-17T16:08:36;14;14;12
51258;PMS7003;37327;54.254;18.504;2022-10-17T16:11:43;15;14;12
51258;PMS7003;37327;54.254;18.504;2022-10-17T16:15:16;14;13;12
51258;PMS7003;37327;54.254;18.504;2022-10-17T16:18:27;14;12;12
51258;PMS7003;37327;54.254;18.504;2022-10-17T16:21:34;15;14;12
51258;PMS7003;37327;54.254;18.504;2022-10-17T16:24:43;14;14;12
51258;PMS7003;37327;54.254;18.504;2022-10-17T16:27:51;19;17;15
51258;PMS7003;37327;54.254;18.504;2022-10-17T16:30:59;17;17;15
51258;PMS7003;37327;54.254;18.504;2022-10-17T16:34:31;19;18;15
51258;PMS7003;37327;54.254;18.504;2022-10-17T16:37:38;15;15;14
51258;PMS7003;37327;54.254;18.504;2022-10-17T16:40:44;18;17;16
51258;PMS7003;37327;54.254;18.504;2022-10-17T16:43:52;19;19;15
51258;PMS7003;37327;54.254;18.504;2022-10-17T16:47:00;19;16;14
51258;PMS7003;37327;54.254;18.504;2022-10-17T16:50:07;21;20;17
51258;PMS7003;37327;54.254;18.504;2022-10-17T16:53:40;23;20;17
51258;PMS7003;37327;54.254;18.504;2022-10-17T16:56:50;17;17;16
51258;PMS7003;37327;54.254;18.504;2022-10-17T16:59:57;22;22;19
51258;PMS7003;37327;54.254;18.504;2022-10-17T17:03:05;24;23;19
51258;PMS7003;37327;54.254;18.504;2022-10-17T17:06:15;22;20;16
51258;PMS7003;37327;54.254;18.504;2022-10-17T17:09:53;26;23;19
51258;PMS7003;37327;54.254;18.504;2022-10-17T17:13:02;21;19;17
51258;PMS7003;37327;54.254;18.504;2022-10-17T17:16:11;22;22;18
51258;PMS7003;37327;54.254;18.504;2022-10-17T17:19:20;24;23;19
51258;PMS7003;37327;54.254;18.504;2022-10-17T17:22:27;21;21;18
51258;PMS7003;37327;54.254;18.504;2022-10-17T17:25:35;23;21;19
51258;PMS7003;37327;54.254;18.504;2022-10-17T17:29:12;23;23;19
51258;PMS7003;37327;54.254;18.504;2022-10-17T17:32:20;27;25;21
51258;PMS7003;37327;54.254;18.504;2022-10-17T17:35:27;20;20;18
51258;PMS7003;37327;54.254;18.504;2022-10-17T17:38:35;23;23;20
51258;PMS7003;37327;54.254;18.504;2022-10-17T17:41:42;25;24;19
51258;PMS7003;37327;54.254;18.504;2022-10-17T17:44:50;25;24;20
51258;PMS7003;37327;54.254;18.504;2022-10-17T17:48:22;22;21;18
51258;PMS7003;37327;54.254;18.504;2022-10-17T17:51:29;27;25;20
51258;PMS7003;37327;54.254;18.504;2022-10-17T17:54:36;23;23;19
51258;PMS7003;37327;54.254;18.504;2022-10-17T17:57:42;23;23;19
51258;PMS7003;37327;54.254;18.504;2022-10-17T18:00:49;24;23;19
51258;PMS7003;37327;54.254;18.504;2022-10-17T18:03:56;21;21;19
51258;PMS7003;37327;54.254;18.504;2022-10-17T18:07:34;24;23;19
51258;PMS7003;37327;54.254;18.504;2022-10-17T18:10:47;24;23;19
51258;PMS7003;37327;54.254;18.504;2022-10-17T18:14:00;23;23;19
51258;PMS7003;37327;54.254;18.504;2022-10-17T18:17:09;23;23;20
51258;PMS7003;37327;54.254;18.504;2022-10-17T18:20:16;20;20;17
51258;PMS7003;37327;54.254;18.504;2022-10-17T18:23:48;25;22;19
51258;PMS7003;37327;54.254;18.504;2022-10-17T18:26:57;27;26;20
51258;PMS7003;37327;54.254;18.504;2022-10-17T18:30:05;23;21;18
51258;PMS7003;37327;54.254;18.504;2022-10-17T18:33:14;27;26;21
51258;PMS7003;37327;54.254;18.504;2022-10-17T18:36:21;25;25;19
51258;PMS7003;37327;54.254;18.504;2022-10-17T18:39:32;26;25;19
51258;PMS7003;37327;54.254;18.504;2022-10-17T18:43:04;23;23;19
51258;PMS7003;37327;54.254;18.504;2022-10-17T18:46:13;24;24;21
51258;PMS7003;37327;54.254;18.504;2022-10-17T18:49:22;25;24;20
51258;PMS7003;37327;54.254;18.504;2022-10-17T18:52:33;23;22;19
51258;PMS7003;37327;54.254;18.504;2022-10-17T18:55:40;21;20;17
51258;PMS7003;37327;54.254;18.504;2022-10-17T18:58:47;20;20;18
51258;PMS7003;37327;54.254;18.504;2022-10-17T19:02:20;22;20;18
51258;PMS7003;37327;54.254;18.504;2022-10-17T19:05:26;20;20;15
51258;PMS7003;37327;54.254;18.504;2022-10-17T19:08:33;19;18;15
51258;PMS7003;37327;54.254;18.504;2022-10-17T19:11:43;24;23;19
51258;PMS7003;37327;54.254;18.504;2022-10-17T19:14:50;20;20;16
51258;PMS7003;37327;54.254;18.504;2022-10-17T19:17:59;21;20;17
51258;PMS7003;37327;54.254;18.504;2022-10-17T19:21:31;21;18;15
51258;PMS7003;37327;54.254;18.504;2022-10-17T19:24:40;21;21;18
51258;PMS7003;37327;54.254;18.504;2022-10-17T19:27:48;22;21;18
51258;PMS7003;37327;54.254;18.504;2022-10-17T19:30:57;24;21;17
51258;PMS7003;37327;54.254;18.504;2022-10-17T19:34:08;23;23;19
51258;PMS7003;37327;54.254;18.504;2022-10-17T19:37:47;20;19;16
51258;PMS7003;37327;54.254;18.504;2022-10-17T19:40:57;20;20;17
51258;PMS7003;37327;54.254;18.504;2022-10-17T19:44:10;18;17;13
51258;PMS7003;37327;54.254;18.504;2022-10-17T19:47:22;21;21;18
51258;PMS7003;37327;54.254;18.504;2022-10-17T19:50:31;23;22;17
51258;PMS7003;37327;54.254;18.504;2022-10-17T19:54:06;19;17;16
51258;PMS7003;37327;54.254;18.504;2022-10-17T19:57:15;21;19;17
51258;PMS7003;37327;54.254;18.504;2022-10-17T20:00:22;16;16;14
51258;PMS7003;37327;54.254;18.504;2022-10-17T20:03:32;19;17;14
51258;PMS7003;37327;54.254;18.504;2022-10-17T20:06:41;20;20;16
51258;PMS7003;37327;54.254;18.504;2022-10-17T20:09:49;20;19;16
51258;PMS7003;37327;54.254;18.504;2022-10-17T20:13:21;20;18;15
51258;PMS7003;37327;54.254;18.504;2022-10-17T20:16:29;17;16;14
51258;PMS7003;37327;54.254;18.504;2022-10-17T20:19:38;16;16;14
51258;PMS7003;37327;54.254;18.504;2022-10-17T20:22:49;18;16;15
51258;PMS7003;37327;54.254;18.504;2022-10-17T20:26:06;19;18;14
51258;PMS7003;37327;54.254;18.504;2022-10-17T20:29:43;16;15;13
51258;PMS7003;37327;54.254;18.504;2022-10-17T20:32:53;19;18;14
51258;PMS7003;37327;54.254;18.504;2022-10-17T20:36:05;19;16;14
51258;PMS7003;37327;54.254;18.504;2022-10-17T20:39:15;17;16;13
51258;PMS7003;37327;54.254;18.504;2022-10-17T20:42:25;17;13;13
51258;PMS7003;37327;54.254;18.504;2022-10-17T20:45:58;14;14;11
51258;PMS7003;37327;54.254;18.504;2022-10-17T20:49:10;15;15;13
51258;PMS7003;37327;54.254;18.504;2022-10-17T20:52:21;14;14;13
51258;PMS7003;37327;54.254;18.504;2022-10-17T20:55:32;15;13;12
51258;PMS7003;37327;54.254;18.504;2022-10-17T20:58:43;18;13;12
51258;PMS7003;37327;54.254;18.504;2022-10-17T21:02:17;16;15;14
51258;PMS7003;37327;54.254;18.504;2022-10-17T21:05:24;15;15;13
51258;PMS7003;37327;54.254;18.504;2022-10-17T21:08:32;13;13;11
51258;PMS7003;37327;54.254;18.504;2022-10-17T21:11:43;15;15;12
51258;PMS7003;37327;54.254;18.504;2022-10-17T21:14:51;14;14;11
51258;PMS7003;37327;54.254;18.504;2022-10-17T21:18:30;14;14;12
51258;PMS7003;37327;54.254;18.504;2022-10-17T21:21:38;16;15;13
51258;PMS7003;37327;54.254;18.504;2022-10-17T21:24:47;15;13;12
51258;PMS7003;37327;54.254;18.504;2022-10-17T21:27:55;18;16;13
51258;PMS7003;37327;54.254;18.504;2022-10-17T21:31:08;17;15;12
51258;PMS7003;37327;54.254;18.504;2022-10-17T21:34:42;13;13;12
51258;PMS7003;37327;54.254;18.504;2022-10-17T21:37:53;15;13;12
51258;PMS7003;37327;54.254;18.504;2022-10-17T21:41:03;15;14;13
51258;PMS7003;37327;54.254;18.504;2022-10-17T21:44:19;14;13;11
51258;PMS7003;37327;54.254;18.504;2022-10-17T21:47:58;14;12;10
51258;PMS7003;37327;54.254;18.504;2022-10-17T21:51:09;14;13;12
51258;PMS7003;37327;54.254;18.504;2022-10-17T21:54:18;11;11;11
51258;PMS7003;37327;54.254;18.504;2022-10-17T21:57:29;14;13;12
51258;PMS7003;37327;54.254;18.504;2022-10-17T22:00:34;13;12;11
51258;PMS7003;37327;54.254;18.504;2022-10-17T22:04:14;14;13;11
51258;PMS7003;37327;54.254;18.504;2022-10-17T22:07:27;14;13;10
51258;PMS7003;37327;54.254;18.504;2022-10-17T22:10:36;11;9;8
51258;PMS7003;37327;54.254;18.504;2022-10-17T22:13:44;12;12;10
51258;PMS7003;37327;54.254;18.504;2022-10-17T22:16:53;14;14;12
51258;PMS7003;37327;54.254;18.504;2022-10-17T22:20:26;12;12;10
51258;PMS7003;37327;54.254;18.504;2022-10-17T22:23:30;12;11;10
51258;PMS7003;37327;54.254;18.504;2022-10-17T22:26:37;12;12;10
51258;PMS7003;37327;54.254;18.504;2022-10-17T22:29:49;10;10;9
51258;PMS7003;37327;54.254;18.504;2022-10-17T22:33:01;13;13;12
51258;PMS7003;37327;54.254;18.504;2022-10-17T22:36:05;12;10;9
51258;PMS7003;37327;54.254;18.504;2022-10-17T22:39:39;10;10;8
51258;PMS7003;37327;54.254;18.504;2022-10-17T22:42:46;12;9;9
51258;PMS7003;37327;54.254;18.504;2022-10-17T22:45:54;11;11;10
51258;PMS7003;37327;54.254;18.504;2022-10-17T22:49:07;11;10;10
51258;PMS7003;37327;54.254;18.504;2022-10-17T22:52:14;13;13;10
51258;PMS7003;37327;54.254;18.504;2022-10-17T22:55:19;9;9;8
51258;PMS7003;37327;54.254;18.504;2022-10-17T22:58:51;10;10;10
51258;PMS7003;37327;54.254;18.504;2022-10-17T23:01:58;10;10;8
51258;PMS7003;37327;54.254;18.504;2022-10-17T23:05:05;10;10;9
51258;PMS7003;37327;54.254;18.504;2022-10-17T23:08:13;10;10;8
51258;PMS7003;37327;54.254;18.504;2022-10-17T23:11:22;10;10;9
51258;PMS7003;37327;54.254;18.504;2022-10-17T23:14:29;6;5;5
51258;PMS7003;37327;54.254;18.504;2022-10-17T23:18:02;9;9;8
51258;PMS7003;37327;54.254;18.504;2022-10-17T23:21:10;10;10;9
51258;PMS7003;37327;54.254;18.504;2022-10-17T23:24:19;7;7;7
51258;PMS7003;37327;54.254;18.504;2022-10-17T23:27:28;7;7;7
51258;PMS7003;37327;54.254;18.504;2022-10-17T23:30:35;10;9;9
51258;PMS7003;37327;54.254;18.504;2022-10-17T23:33:46;9;9;8
51258;PMS7003;37327;54.254;18.504;2022-10-17T23:37:19;9;9;8
51258;PMS7003;37327;54.254;18.504;2022-10-17T23:40:26;11;11;10
51258;PMS7003;37327;54.254;18.504;2022-10-17T23:43:33;9;8;7
51258;PMS7003;37327;54.254;18.504;2022-10-17T23:46:42;7;7;6
51258;PMS7003;37327;54.254;18.504;2022-10-17T23:49:50;9;9;8
51258;PMS7003;37327;54.254;18.504;2022-10-17T23:52:57;10;9;8
51258;PMS7003;37327;54.254;18.504;2022-10-17T23:56:30;9;9;8
51258;PMS7003;37327;54.254;18.504;2022-10-17T23:59:37;7;7;7
